Time;durP1;ratioP1;P1;durP2;ratioP2;P2;SDS_P1;SDS_P2;PMS_P1;PMS_P2;Temp;Humidity;BMP_temperature;BMP_pressure;BME280_temperature;BME280_humidity;BME280_pressure;Samples;Min_cycle;Max_cycle;Signal;HPM_P1;HPM_P2
2020/12/13 00:01:37;;;;;;;11.63;8.27;;;6.10;85.30;;;;;;5064511;28;20036;-66
2020/12/13 00:04:03;;;;;;;13.27;9.20;;;6.10;85.30;;;;;;5068056;28;20032;-65
2020/12/13 00:06:32;;;;;;;12.85;9.25;;;6.10;86.10;;;;;;5069060;28;20024;-66
2020/12/13 00:09:03;;;;;;;14.85;8.77;;;6.10;85.40;;;;;;5060129;28;20549;-66
2020/12/13 00:11:29;;;;;;;17.38;9.85;;;6.10;85.30;;;;;;5066568;28;20025;-66
2020/12/13 00:13:55;;;;;;;15.30;9.45;;;6.10;85.30;;;;;;5069410;28;20024;-66
2020/12/13 00:16:20;;;;;;;15.48;9.07;;;6.20;85.40;;;;;;5056857;28;20625;-65
2020/12/13 00:18:46;;;;;;;19.20;10.70;;;6.20;85.40;;;;;;5067745;28;20039;-66
2020/12/13 00:21:13;;;;;;;18.40;10.07;;;6.20;85.40;;;;;;5069173;28;20052;-66
2020/12/13 00:23:39;;;;;;;17.73;10.20;;;6.20;85.40;;;;;;5060104;28;20403;-66
2020/12/13 00:26:11;;;;;;;14.60;9.75;;;6.20;85.30;;;;;;5067337;28;20025;-66
2020/12/13 00:28:38;;;;;;;11.20;8.60;;;6.20;85.30;;;;;;5063312;28;20067;-66
2020/12/13 00:31:05;;;;;;;11.55;8.68;;;6.20;85.20;;;;;;5068237;28;20025;-66
2020/12/13 00:33:31;;;;;;;10.70;8.18;;;6.20;85.30;;;;;;5068116;28;20112;-66
2020/12/13 00:35:57;;;;;;;10.93;8.35;;;6.30;85.30;;;;;;5061218;28;20066;-66
2020/12/13 00:38:23;;;;;;;9.25;7.65;;;6.20;85.10;;;;;;5067369;28;20029;-66
2020/12/13 00:40:51;;;;;;;11.80;7.75;;;6.30;85.20;;;;;;5067598;28;20031;-66
2020/12/13 00:43:20;;;;;;;10.55;8.32;;;6.30;85.20;;;;;;5067951;28;20025;-66
2020/12/13 00:45:45;;;;;;;9.85;8.05;;;6.30;85.20;;;;;;5069217;28;20101;-66
2020/12/13 00:48:11;;;;;;;9.55;8.02;;;6.30;85.20;;;;;;5067826;28;20453;-65
2020/12/13 00:50:38;;;;;;;9.55;7.78;;;6.30;85.20;;;;;;5067464;28;20021;-66
2020/12/13 00:53:08;;;;;;;10.20;8.25;;;6.30;85.20;;;;;;5062061;28;20024;-66
2020/12/13 00:55:33;;;;;;;10.60;8.02;;;6.30;85.30;;;;;;5066069;28;20049;-66
2020/12/13 00:57:59;;;;;;;10.48;7.97;;;6.30;85.40;;;;;;5068054;28;20071;-67
2020/12/13 01:00:25;;;;;;;10.02;8.02;;;6.20;85.40;;;;;;5060437;28;20463;-67
2020/12/13 01:02:57;;;;;;;12.18;9.02;;;6.30;85.50;;;;;;5069691;28;20032;-66
2020/12/13 01:05:24;;;;;;;11.70;9.18;;;6.30;85.60;;;;;;5073016;28;20039;-67
2020/12/13 01:07:51;;;;;;;12.32;9.32;;;6.30;85.60;;;;;;5070696;28;20029;-66
2020/12/13 01:10:20;;;;;;;13.23;9.55;;;6.40;85.60;;;;;;5070936;28;20036;-65
2020/12/13 01:12:46;;;;;;;12.07;8.48;;;6.30;85.60;;;;;;5069232;28;20400;-66
2020/12/13 01:15:12;;;;;;;11.65;8.82;;;6.40;85.60;;;;;;5067699;28;20120;-67
2020/12/13 01:17:37;;;;;;;12.60;9.65;;;6.40;85.80;;;;;;5072060;28;20464;-64
2020/12/13 01:20:05;;;;;;;11.80;8.57;;;6.40;85.80;;;;;;5070677;28;20052;-66
2020/12/13 01:22:36;;;;;;;11.45;8.32;;;6.40;85.80;;;;;;5071260;28;20078;-66
2020/12/13 01:25:02;;;;;;;15.65;9.60;;;6.40;85.80;;;;;;5062997;28;20077;-66
2020/12/13 01:27:27;;;;;;;11.20;7.97;;;6.40;85.80;;;;;;5068500;28;20157;-67
2020/12/13 01:29:53;;;;;;;13.02;9.15;;;6.40;85.80;;;;;;5069410;28;20028;-66
2020/12/13 01:32:19;;;;;;;12.85;8.93;;;6.40;85.70;;;;;;5072191;28;20036;-66
2020/12/13 01:34:44;;;;;;;11.85;8.57;;;6.50;85.80;;;;;;5068518;28;20032;-64
2020/12/13 01:37:10;;;;;;;13.90;9.05;;;6.50;85.80;;;;;;5071530;28;20566;-66
2020/12/13 01:39:35;;;;;;;12.27;9.05;;;6.50;85.80;;;;;;5069132;28;20032;-67
2020/12/13 01:42:01;;;;;;;12.23;8.35;;;6.40;85.60;;;;;;5071363;28;20025;-67
2020/12/13 01:44:31;;;;;;;11.95;8.63;;;6.40;85.60;;;;;;5054475;28;20389;-66
2020/12/13 01:46:59;;;;;;;11.40;8.48;;;6.40;85.60;;;;;;5059048;28;20112;-66
2020/12/13 01:49:36;;;;;;;12.32;8.70;;;6.50;85.60;;;;;;5070023;28;20078;-65
2020/12/13 01:55:11;;;;;;;10.77;8.30;;;6.40;85.40;;;;;;5067520;28;20032;-65
2020/12/13 01:57:39;;;;;;;11.18;7.63;;;6.40;85.40;;;;;;5063645;28;20029;-66
2020/12/13 02:00:17;;;;;;;10.48;7.78;;;6.40;85.30;;;;;;5063845;28;20028;-67
2020/12/13 02:02:52;;;;;;;10.45;7.80;;;6.40;85.40;;;;;;5068897;28;20036;-66
2020/12/13 02:05:20;;;;;;;11.43;8.13;;;6.40;85.40;;;;;;5070960;28;20037;-66
2020/12/13 02:07:47;;;;;;;12.00;8.52;;;6.40;85.40;;;;;;5069508;28;20420;-66
2020/12/13 02:10:13;;;;;;;10.90;7.55;;;6.40;85.40;;;;;;5070115;28;20115;-66
2020/12/13 02:12:39;;;;;;;10.80;8.02;;;6.40;85.40;;;;;;5066986;28;20112;-66
2020/12/13 02:15:09;;;;;;;11.65;8.05;;;6.40;85.40;;;;;;5070216;28;20561;-67
2020/12/13 02:17:36;;;;;;;12.27;8.40;;;6.50;85.40;;;;;;5063865;28;20032;-65
2020/12/13 02:20:14;;;;;;;12.95;8.20;;;6.40;85.40;;;;;;5068903;28;20078;-67
2020/12/13 02:22:48;;;;;;;13.57;8.68;;;6.40;85.50;;;;;;5070198;28;20036;-64
2020/12/13 02:25:21;;;;;;;11.97;8.43;;;6.40;85.40;;;;;;5071146;28;20052;-64
2020/12/13 02:27:47;;;;;;;11.02;8.05;;;6.40;85.30;;;;;;5070143;28;20077;-66
2020/12/13 02:30:12;;;;;;;11.10;8.32;;;6.40;85.30;;;;;;5070810;28;20047;-66
2020/12/13 02:32:38;;;;;;;11.60;8.43;;;6.50;85.40;;;;;;5070240;28;20375;-66
2020/12/13 02:35:06;;;;;;;10.18;7.13;;;6.40;85.30;;;;;;5069314;28;20043;-66
2020/12/13 02:37:32;;;;;;;10.65;8.07;;;6.40;85.30;;;;;;5068618;28;20049;-64
2020/12/13 02:39:58;;;;;;;11.63;8.30;;;6.40;85.30;;;;;;5058630;28;20106;-66
2020/12/13 02:42:24;;;;;;;12.10;7.70;;;6.40;85.20;;;;;;5064278;28;20449;-66
2020/12/13 02:44:50;;;;;;;10.82;8.05;;;6.40;85.10;;;;;;5067225;28;20498;-66
2020/12/13 02:47:16;;;;;;;11.13;7.50;;;6.40;85.10;;;;;;5064503;28;20055;-66
2020/12/13 02:49:42;;;;;;;10.52;7.45;;;6.40;85.10;;;;;;5050180;28;20028;-66
2020/12/13 02:52:10;;;;;;;10.25;7.53;;;6.40;85.30;;;;;;5067597;28;20040;-66
2020/12/13 02:54:36;;;;;;;11.32;7.85;;;6.30;85.20;;;;;;5068802;28;20028;-66
2020/12/13 02:57:03;;;;;;;10.40;7.47;;;6.30;85.30;;;;;;5069383;28;20503;-66
2020/12/13 02:59:29;;;;;;;10.73;7.95;;;6.30;85.30;;;;;;5068137;28;20029;-66
2020/12/13 03:01:54;;;;;;;12.48;8.02;;;6.30;85.40;;;;;;5070044;28;20050;-67
2020/12/13 03:04:20;;;;;;;12.02;8.70;;;6.30;85.60;;;;;;5067813;28;20109;-66
2020/12/13 03:06:45;;;;;;;11.82;8.50;;;6.20;85.60;;;;;;5067896;28;20403;-67
2020/12/13 03:09:11;;;;;;;11.80;8.27;;;6.20;85.60;;;;;;5049210;28;20021;-67
2020/12/13 03:11:37;;;;;;;11.63;8.30;;;6.20;85.70;;;;;;5066202;28;20124;-67
2020/12/13 03:14:02;;;;;;;11.43;8.23;;;6.20;85.70;;;;;;5070575;28;20534;-67
2020/12/13 03:16:28;;;;;;;11.45;8.05;;;6.20;85.80;;;;;;5067528;28;20048;-67
2020/12/13 03:18:54;;;;;;;13.32;9.02;;;6.20;85.80;;;;;;5067974;28;20029;-66
2020/12/13 03:21:19;;;;;;;11.18;8.45;;;6.20;86.00;;;;;;5068867;28;20036;-66
2020/12/13 03:23:45;;;;;;;12.57;9.15;;;6.20;86.00;;;;;;5066550;28;20075;-66
2020/12/13 03:26:10;;;;;;;13.77;9.57;;;6.20;86.10;;;;;;5068237;28;20028;-67
2020/12/13 03:28:36;;;;;;;13.57;9.40;;;6.20;86.10;;;;;;5053368;28;20495;-66
2020/12/13 03:31:01;;;;;;;13.70;9.70;;;6.20;86.20;;;;;;5068453;28;20074;-66
2020/12/13 03:33:27;;;;;;;13.82;9.68;;;6.30;86.30;;;;;;5069849;28;20107;-66
2020/12/13 03:35:53;;;;;;;14.63;9.55;;;6.30;86.30;;;;;;5069546;28;20035;-67
2020/12/13 03:38:18;;;;;;;14.73;9.52;;;6.30;86.30;;;;;;5069044;28;20060;-67
2020/12/13 03:40:44;;;;;;;16.27;10.57;;;6.30;86.30;;;;;;5060427;28;20469;-66
2020/12/13 03:43:10;;;;;;;16.85;10.95;;;6.20;86.10;;;;;;5067912;28;20128;-67
2020/12/13 03:45:35;;;;;;;17.17;11.10;;;6.40;86.30;;;;;;5069211;28;20035;-67
2020/12/13 03:48:01;;;;;;;20.65;14.95;;;6.40;86.20;;;;;;5068314;28;20086;-66
2020/12/13 03:50:38;;;;;;;18.70;12.70;;;6.50;86.30;;;;;;5068272;28;20025;-66
2020/12/13 03:53:07;;;;;;;20.15;13.02;;;6.50;86.20;;;;;;5061516;28;20136;-66
2020/12/13 03:55:33;;;;;;;22.38;14.85;;;6.50;86.10;;;;;;5067060;28;20025;-66
2020/12/13 03:57:59;;;;;;;16.58;11.13;;;6.50;86.00;;;;;;5068199;28;20039;-66
2020/12/13 04:00:27;;;;;;;19.02;12.73;;;6.50;86.00;;;;;;5068027;28;20504;-67
2020/12/13 04:02:54;;;;;;;16.02;10.98;;;6.60;86.00;;;;;;5067932;28;20032;-67
2020/12/13 04:05:21;;;;;;;16.42;10.82;;;6.60;86.00;;;;;;5068790;28;20067;-66
2020/12/13 04:07:47;;;;;;;16.55;11.20;;;6.60;85.90;;;;;;5067458;28;20028;-66
2020/12/13 04:10:12;;;;;;;17.45;11.75;;;6.60;85.90;;;;;;5068463;28;20407;-67
2020/12/13 04:12:38;;;;;;;18.58;11.55;;;6.60;85.90;;;;;;5064772;28;20496;-67
2020/12/13 04:15:04;;;;;;;16.73;11.75;;;6.60;85.80;;;;;;5067848;28;20035;-66
2020/12/13 04:17:29;;;;;;;16.98;11.48;;;6.60;85.90;;;;;;5068609;28;20180;-67
2020/12/13 04:19:55;;;;;;;17.55;11.65;;;6.60;85.90;;;;;;5067809;28;20115;-66
2020/12/13 04:22:20;;;;;;;17.48;11.40;;;6.60;85.80;;;;;;5067924;28;20055;-67
2020/12/13 04:24:46;;;;;;;18.60;12.35;;;6.60;85.80;;;;;;5061852;28;20048;-67
2020/12/13 04:27:11;;;;;;;17.90;11.88;;;6.60;85.80;;;;;;5066349;28;20115;-67
2020/12/13 04:29:37;;;;;;;19.30;13.88;;;6.60;85.80;;;;;;5067422;28;20039;-66
2020/12/13 04:32:03;;;;;;;17.88;11.93;;;6.60;85.80;;;;;;5067490;28;20335;-67
2020/12/13 04:34:28;;;;;;;18.45;12.60;;;6.60;85.80;;;;;;5067013;28;20169;-66
2020/12/13 04:36:54;;;;;;;16.88;11.90;;;6.60;85.90;;;;;;5065393;28;20117;-67
2020/12/13 04:39:19;;;;;;;22.92;17.02;;;6.60;86.00;;;;;;5068248;28;20035;-67
2020/12/13 04:41:45;;;;;;;17.70;12.68;;;6.60;85.80;;;;;;5068046;28;20032;-66
2020/12/13 04:44:11;;;;;;;16.52;11.90;;;6.60;85.90;;;;;;5062366;28;20517;-66
2020/12/13 04:46:43;;;;;;;16.85;12.13;;;6.60;86.00;;;;;;5065848;28;20107;-67
2020/12/13 04:49:08;;;;;;;17.60;12.15;;;6.60;85.90;;;;;;5068020;28;20028;-67
2020/12/13 04:51:37;;;;;;;15.63;11.73;;;6.60;85.90;;;;;;5067758;28;20024;-66
2020/12/13 04:54:05;;;;;;;17.25;13.02;;;6.60;86.00;;;;;;5066846;28;20090;-67
2020/12/13 04:56:37;;;;;;;17.15;11.98;;;6.60;86.00;;;;;;5064781;28;20037;-67
2020/12/13 04:59:04;;;;;;;15.02;10.82;;;6.60;86.00;;;;;;5066671;28;20502;-66
2020/12/13 05:01:30;;;;;;;14.65;10.88;;;6.60;85.90;;;;;;5066371;28;20149;-67
2020/12/13 05:03:56;;;;;;;13.57;10.50;;;6.70;86.00;;;;;;5066106;28;20032;-67
2020/12/13 05:06:22;;;;;;;14.80;10.90;;;6.60;85.80;;;;;;5066983;28;20082;-66
2020/12/13 05:08:48;;;;;;;14.88;10.45;;;6.70;85.90;;;;;;5066170;28;20029;-67
2020/12/13 05:11:15;;;;;;;14.73;10.63;;;6.70;85.90;;;;;;5065509;28;20045;-66
2020/12/13 05:13:41;;;;;;;16.63;11.77;;;6.70;85.90;;;;;;5067395;28;20021;-66
2020/12/13 05:16:10;;;;;;;16.05;10.63;;;6.60;86.60;;;;;;5066495;28;20028;-66
2020/12/13 05:18:39;;;;;;;13.75;9.82;;;6.60;85.90;;;;;;5061742;28;20166;-67
2020/12/13 05:21:05;;;;;;;16.08;10.55;;;6.60;85.90;;;;;;5066410;28;20096;-67
2020/12/13 05:23:34;;;;;;;14.45;10.80;;;6.60;85.90;;;;;;5066864;28;20036;-67
2020/12/13 05:26:00;;;;;;;14.88;11.02;;;6.60;86.00;;;;;;5059422;28;20086;-66
2020/12/13 05:28:26;;;;;;;18.33;12.95;;;6.70;86.00;;;;;;5066657;28;20033;-67
2020/12/13 05:30:53;;;;;;;15.95;11.55;;;6.60;85.90;;;;;;5065762;28;20033;-67
2020/12/13 05:33:37;;;;;;;18.33;13.35;;;6.70;86.80;;;;;;5068290;28;20116;-66
2020/12/13 05:36:05;;;;;;;17.85;13.20;;;6.70;86.00;;;;;;5065633;28;20040;-66
2020/12/13 05:38:32;;;;;;;17.08;11.85;;;6.70;85.90;;;;;;5066443;28;20040;-67
2020/12/13 05:40:58;;;;;;;17.67;12.05;;;6.80;86.00;;;;;;5058271;28;20040;-66
2020/12/13 05:43:27;;;;;;;17.92;11.48;;;6.70;85.90;;;;;;5066169;28;20048;-66
2020/12/13 05:53:15;;;;;;;16.75;11.07;;;6.70;85.90;;;;;;5071190;28;20385;-67
2020/12/13 05:55:43;;;;;;;14.63;10.90;;;6.70;85.90;;;;;;5061841;28;20561;-67
2020/12/13 05:58:08;;;;;;;16.45;11.05;;;6.70;85.90;;;;;;5057522;28;20071;-66
2020/12/13 06:00:34;;;;;;;16.30;10.77;;;6.70;86.00;;;;;;5055232;28;20500;-67
2020/12/13 06:03:04;;;;;;;16.10;11.52;;;6.70;86.00;;;;;;5070007;28;20039;-67
2020/12/13 06:05:35;;;;;;;15.43;11.18;;;6.70;86.10;;;;;;5069308;28;20033;-67
2020/12/13 06:08:03;;;;;;;17.35;11.88;;;6.70;86.10;;;;;;5060951;28;20044;-67
2020/12/13 06:10:33;;;;;;;18.02;11.43;;;6.70;86.10;;;;;;5066281;28;20086;-67
2020/12/13 06:13:04;;;;;;;16.83;11.88;;;6.70;86.20;;;;;;5069876;28;20052;-67
2020/12/13 06:15:31;;;;;;;16.88;11.88;;;6.70;86.20;;;;;;5069655;28;20392;-66
2020/12/13 06:18:05;;;;;;;16.95;12.15;;;6.60;86.10;;;;;;5070730;28;20515;-67
2020/12/13 06:20:33;;;;;;;17.20;11.80;;;6.70;86.30;;;;;;5069329;28;20440;-67
2020/12/13 06:23:00;;;;;;;17.75;12.23;;;6.70;86.30;;;;;;5070531;28;20094;-66
2020/12/13 06:25:26;;;;;;;15.82;11.60;;;6.60;86.20;;;;;;5071197;28;20021;-67
2020/12/13 06:27:52;;;;;;;15.40;11.45;;;6.70;86.20;;;;;;5069720;28;20055;-67
2020/12/13 06:30:19;;;;;;;16.88;11.63;;;6.70;86.30;;;;;;5069527;28;20041;-67
2020/12/13 06:32:51;;;;;;;16.10;11.50;;;6.70;86.20;;;;;;5070760;28;20115;-67
2020/12/13 06:35:19;;;;;;;14.25;10.93;;;6.70;86.30;;;;;;5066703;28;20028;-67
2020/12/13 06:37:45;;;;;;;15.00;11.10;;;6.70;86.30;;;;;;5068412;28;20056;-67
2020/12/13 06:40:20;;;;;;;14.52;10.95;;;6.70;86.40;;;;;;5067261;28;20037;-67
2020/12/13 06:42:47;;;;;;;13.20;10.20;;;6.70;86.30;;;;;;5069511;28;20515;-67
2020/12/13 06:45:14;;;;;;;14.43;10.82;;;6.70;86.20;;;;;;5068906;28;20037;-66
2020/12/13 06:47:42;;;;;;;13.45;10.65;;;6.60;86.20;;;;;;5069871;28;20112;-67
2020/12/13 06:50:10;;;;;;;11.65;9.35;;;6.70;86.30;;;;;;5069237;28;20025;-67
2020/12/13 06:52:36;;;;;;;12.10;8.90;;;6.60;86.20;;;;;;5069995;28;20032;-67
2020/12/13 06:55:06;;;;;;;11.23;8.88;;;6.60;86.20;;;;;;5068716;28;20127;-67
2020/12/13 06:57:33;;;;;;;11.77;9.20;;;6.60;86.20;;;;;;5067961;28;20510;-66
2020/12/13 07:00:04;;;;;;;11.40;8.75;;;6.70;86.30;;;;;;5068936;28;20036;-67
2020/12/13 07:02:46;;;;;;;11.50;9.23;;;6.60;86.20;;;;;;5066875;28;20059;-67
2020/12/13 07:05:13;;;;;;;10.82;8.50;;;6.60;86.30;;;;;;5053661;28;20037;-67
2020/12/13 07:07:39;;;;;;;12.40;9.00;;;6.60;86.10;;;;;;5056292;28;20408;-67
2020/12/13 07:10:08;;;;;;;11.10;9.30;;;6.60;86.10;;;;;;5067406;28;20043;-67
2020/12/13 07:12:35;;;;;;;10.93;9.13;;;6.70;86.20;;;;;;5065395;28;20540;-67
2020/12/13 07:15:11;;;;;;;10.57;8.43;;;6.60;86.10;;;;;;5068354;28;20037;-67
2020/12/13 07:17:37;;;;;;;10.88;9.00;;;6.70;86.10;;;;;;5067412;28;20036;-66
2020/12/13 07:20:02;;;;;;;11.20;8.50;;;6.60;85.90;;;;;;5067194;28;20035;-67
2020/12/13 07:22:34;;;;;;;10.60;8.82;;;6.70;85.90;;;;;;5068140;28;20029;-67
2020/12/13 07:25:00;;;;;;;14.27;11.00;;;6.70;85.90;;;;;;5065556;28;20468;-67
2020/12/13 07:27:27;;;;;;;13.48;11.13;;;6.70;85.90;;;;;;5062193;28;20428;-67
2020/12/13 07:29:55;;;;;;;13.25;10.65;;;6.60;85.70;;;;;;5063985;28;20078;-65
2020/12/13 07:32:22;;;;;;;13.27;11.35;;;6.60;86.60;;;;;;5066885;28;20038;-68
2020/12/13 07:34:48;;;;;;;13.05;9.38;;;6.60;85.80;;;;;;5065321;28;20037;-66
2020/12/13 07:37:15;;;;;;;10.43;8.20;;;6.60;86.60;;;;;;5063308;28;20137;-67
2020/12/13 07:39:41;;;;;;;10.10;8.70;;;6.60;85.90;;;;;;5055815;28;20033;-67
2020/12/13 07:42:08;;;;;;;10.10;8.60;;;6.50;85.90;;;;;;5061467;28;20473;-67
2020/12/13 07:44:33;;;;;;;9.45;8.43;;;6.60;86.00;;;;;;5063485;28;20109;-67
2020/12/13 07:46:59;;;;;;;9.85;7.90;;;6.60;86.00;;;;;;5067670;28;20036;-68
2020/12/13 07:49:25;;;;;;;9.07;7.40;;;6.60;86.00;;;;;;5065529;28;20040;-67
2020/12/13 07:51:54;;;;;;;9.52;7.53;;;6.60;86.00;;;;;;5060644;28;20486;-67
2020/12/13 07:54:26;;;;;;;10.75;7.55;;;6.60;86.10;;;;;;5066753;28;20067;-67
2020/12/13 07:56:53;;;;;;;9.07;7.05;;;6.60;86.00;;;;;;5062865;28;20455;-67
2020/12/13 07:59:27;;;;;;;7.85;6.53;;;6.60;86.00;;;;;;5066445;28;20052;-67
2020/12/13 08:01:57;;;;;;;9.07;7.07;;;6.60;86.10;;;;;;5064841;28;20037;-68
2020/12/13 08:04:36;;;;;;;9.85;8.00;;;6.60;86.10;;;;;;5064333;28;20035;-67
2020/12/13 08:07:10;;;;;;;7.35;6.45;;;6.60;86.20;;;;;;5065683;28;20024;-67
2020/12/13 08:09:38;;;;;;;8.32;7.03;;;6.60;86.10;;;;;;5067092;28;20039;-67
2020/12/13 08:12:05;;;;;;;7.15;5.55;;;6.60;86.10;;;;;;5064572;28;20068;-68
2020/12/13 08:14:30;;;;;;;7.25;6.53;;;6.60;87.00;;;;;;5065997;28;20037;-67
2020/12/13 08:16:57;;;;;;;7.15;6.45;;;6.60;86.20;;;;;;5062961;28;20090;-67
2020/12/13 08:19:35;;;;;;;17.30;13.07;;;6.70;86.30;;;;;;5062037;28;20039;-67
2020/12/13 08:22:04;;;;;;;8.00;7.07;;;6.60;86.30;;;;;;5065220;28;20539;-67
2020/12/13 08:24:30;;;;;;;8.45;6.13;;;6.60;86.20;;;;;;5065633;28;20028;-67
2020/12/13 08:27:01;;;;;;;7.00;6.03;;;6.70;86.30;;;;;;5068825;28;20036;-67
2020/12/13 08:29:31;;;;;;;8.15;7.18;;;6.70;86.30;;;;;;5066782;28;20032;-67
2020/12/13 08:31:57;;;;;;;7.00;5.82;;;6.70;86.30;;;;;;5066691;28;20055;-66
2020/12/13 08:34:26;;;;;;;7.25;5.72;;;6.70;86.20;;;;;;5067548;28;20024;-67
2020/12/13 08:36:54;;;;;;;6.65;5.63;;;6.70;86.20;;;;;;5064540;28;20050;-67
2020/12/13 08:39:31;;;;;;;7.05;6.20;;;6.80;86.20;;;;;;5062432;28;20055;-67
2020/12/13 08:42:03;;;;;;;6.72;5.38;;;6.80;86.20;;;;;;5067705;28;20625;-67
2020/12/13 08:44:42;;;;;;;6.22;5.35;;;6.80;86.20;;;;;;5064545;28;20123;-68
2020/12/13 08:47:11;;;;;;;6.00;5.25;;;6.80;86.20;;;;;;5060738;28;20032;-67
2020/12/13 08:49:41;;;;;;;7.50;5.47;;;6.80;86.20;;;;;;5064555;28;20147;-67
2020/12/13 08:52:20;;;;;;;6.05;5.40;;;6.80;86.20;;;;;;5066885;28;20048;-67
2020/12/13 08:54:50;;;;;;;7.00;6.25;;;6.80;86.30;;;;;;5063191;28;20518;-67
2020/12/13 08:57:47;;;;;;;7.90;6.80;;;6.80;86.20;;;;;;5058901;28;20512;-67
2020/12/13 09:00:16;;;;;;;6.38;5.78;;;6.90;86.40;;;;;;5060459;28;20037;-67
2020/12/13 09:02:58;;;;;;;8.45;6.63;;;6.90;86.20;;;;;;5065320;28;20032;-67
2020/12/13 09:05:32;;;;;;;6.97;5.95;;;6.90;86.20;;;;;;5063488;28;20032;-67
2020/12/13 09:07:59;;;;;;;7.75;6.88;;;6.90;86.20;;;;;;5046779;28;20135;-67
2020/12/13 09:10:26;;;;;;;7.55;6.22;;;7.00;86.20;;;;;;5059622;28;20082;-67
2020/12/13 09:12:52;;;;;;;6.85;6.15;;;7.00;86.30;;;;;;5060501;28;20041;-67
2020/12/13 09:15:21;;;;;;;6.65;6.03;;;7.00;86.40;;;;;;5067271;28;20506;-67
2020/12/13 09:17:57;;;;;;;7.30;5.97;;;7.00;86.40;;;;;;5061798;28;20119;-67
2020/12/13 09:20:28;;;;;;;11.43;8.85;;;7.10;86.40;;;;;;5061355;28;20047;-67
2020/12/13 09:23:12;;;;;;;11.40;8.48;;;7.10;86.20;;;;;;5063792;28;20182;-67
2020/12/13 09:25:45;;;;;;;7.20;6.13;;;7.10;86.20;;;;;;5062932;28;20041;-67
2020/12/13 09:28:12;;;;;;;7.05;5.68;;;7.10;86.10;;;;;;5065942;28;20040;-67
2020/12/13 09:30:39;;;;;;;5.70;5.18;;;7.10;86.00;;;;;;5067316;28;20072;-67
2020/12/13 09:33:05;;;;;;;5.93;5.32;;;7.20;86.20;;;;;;5067292;28;20431;-67
2020/12/13 09:35:31;;;;;;;6.50;5.55;;;7.20;86.00;;;;;;5066159;28;20459;-67
2020/12/13 09:38:01;;;;;;;6.60;5.90;;;7.20;85.90;;;;;;5068541;28;20173;-67
2020/12/13 09:40:27;;;;;;;6.32;5.72;;;7.30;86.00;;;;;;5067217;28;20115;-67
2020/12/13 09:42:54;;;;;;;6.05;5.28;;;7.30;85.90;;;;;;5067215;28;20661;-65
2020/12/13 09:45:20;;;;;;;10.93;7.90;;;7.30;85.70;;;;;;5067549;28;20029;-68
2020/12/13 09:47:46;;;;;;;8.30;7.13;;;7.30;85.50;;;;;;5067134;28;20165;-67
2020/12/13 09:50:12;;;;;;;6.00;5.43;;;7.30;85.50;;;;;;5068365;28;20198;-67
2020/12/13 09:52:38;;;;;;;8.93;8.02;;;7.30;85.50;;;;;;5069264;28;20032;-67
2020/12/13 09:55:04;;;;;;;10.23;8.65;;;7.30;85.40;;;;;;5070966;28;20029;-67
2020/12/13 09:57:30;;;;;;;7.43;6.72;;;7.30;85.40;;;;;;5069037;28;20032;-67
2020/12/13 09:59:55;;;;;;;5.22;4.72;;;7.30;85.50;;;;;;5068645;28;20033;-68
2020/12/13 10:02:21;;;;;;;8.00;7.05;;;7.40;85.70;;;;;;5070669;28;20033;-67
2020/12/13 10:04:46;;;;;;;10.15;7.50;;;7.40;85.80;;;;;;5067779;28;20035;-67
2020/12/13 10:09:40;;;;;;;7.45;6.00;;;7.40;85.70;;;;;;5067341;28;20035;-67
2020/12/13 10:12:06;;;;;;;5.55;5.05;;;7.40;85.70;;;;;;5066846;28;20033;-68
2020/12/13 10:14:32;;;;;;;6.65;5.72;;;7.50;85.70;;;;;;5066514;28;20039;-66
2020/12/13 10:16:57;;;;;;;5.80;4.70;;;7.50;85.80;;;;;;5064848;28;20104;-67
2020/12/13 10:19:24;;;;;;;5.25;4.70;;;7.60;85.90;;;;;;5063108;28;20037;-67
2020/12/13 10:21:50;;;;;;;5.60;5.00;;;7.50;85.80;;;;;;5065712;28;20033;-68
2020/12/13 10:24:16;;;;;;;7.25;5.40;;;7.60;85.90;;;;;;5069103;28;20158;-68
2020/12/13 10:26:41;;;;;;;4.70;4.30;;;7.60;85.90;;;;;;5061265;28;20050;-68
2020/12/13 10:29:07;;;;;;;5.28;4.60;;;7.70;86.60;;;;;;5070016;28;20116;-67
2020/12/13 10:31:38;;;;;;;4.47;4.07;;;7.70;85.60;;;;;;5065585;28;20036;-67
2020/12/13 10:34:07;;;;;;;4.75;4.35;;;7.70;86.30;;;;;;5063702;28;20035;-67
2020/12/13 10:36:34;;;;;;;5.50;4.90;;;7.80;85.50;;;;;;5068492;28;20036;-67
2020/12/13 10:38:59;;;;;;;5.18;4.68;;;7.80;85.50;;;;;;5067886;28;20086;-68
2020/12/13 10:41:25;;;;;;;5.20;4.70;;;7.80;85.40;;;;;;5067195;28;20037;-68
2020/12/13 10:43:51;;;;;;;5.13;4.63;;;7.80;86.20;;;;;;5068976;28;20044;-68
2020/12/13 10:46:17;;;;;;;5.35;4.78;;;7.80;85.40;;;;;;5069244;28;20037;-68
2020/12/13 10:48:43;;;;;;;5.22;4.72;;;7.90;85.50;;;;;;5064304;28;20055;-68
2020/12/13 10:51:09;;;;;;;5.07;4.57;;;7.90;85.40;;;;;;5067048;28;20161;-67
2020/12/13 10:53:35;;;;;;;4.78;4.25;;;7.90;85.30;;;;;;5081813;28;20029;-67
2020/12/13 10:56:04;;;;;;;6.22;4.82;;;8.00;85.20;;;;;;5065058;28;20050;-68
2020/12/13 10:58:30;;;;;;;6.50;4.90;;;8.00;85.10;;;;;;5057123;28;20025;-68
2020/12/13 11:00:56;;;;;;;5.35;4.85;;;8.00;85.10;;;;;;5061772;28;20039;-68
2020/12/13 11:03:22;;;;;;;6.85;5.40;;;8.10;85.00;;;;;;5066521;28;20507;-67
2020/12/13 11:05:48;;;;;;;6.00;4.88;;;8.10;84.80;;;;;;5065270;28;20392;-68
2020/12/13 11:08:14;;;;;;;5.75;5.07;;;8.10;84.60;;;;;;5066283;28;20039;-68
2020/12/13 11:10:48;;;;;;;7.63;5.65;;;8.10;84.60;;;;;;5065662;28;20034;-68
2020/12/13 11:13:14;;;;;;;6.70;5.65;;;8.10;84.50;;;;;;5067662;28;20070;-68
2020/12/13 11:15:41;;;;;;;5.05;4.55;;;8.10;84.40;;;;;;5068149;28;20128;-68
2020/12/13 11:18:07;;;;;;;5.20;4.70;;;8.10;84.30;;;;;;5068416;28;20040;-68
2020/12/13 11:20:33;;;;;;;4.78;4.38;;;8.00;84.30;;;;;;5066675;28;20020;-68
2020/12/13 11:22:58;;;;;;;4.57;4.18;;;8.00;84.30;;;;;;5067526;28;20060;-68
2020/12/13 11:25:24;;;;;;;4.78;4.32;;;8.00;84.30;;;;;;5068957;28;20027;-68
2020/12/13 11:27:49;;;;;;;4.90;4.40;;;8.00;84.40;;;;;;5067558;28;20040;-68
2020/12/13 11:30:15;;;;;;;4.22;3.85;;;8.00;84.50;;;;;;5068024;28;20572;-68
2020/12/13 11:32:43;;;;;;;4.82;4.38;;;8.00;84.60;;;;;;5067447;28;20434;-68
2020/12/13 11:35:10;;;;;;;6.13;4.72;;;7.90;84.60;;;;;;5061871;28;20458;-68
2020/12/13 11:37:36;;;;;;;5.07;4.20;;;7.90;84.80;;;;;;5066326;28;20033;-68
2020/12/13 11:40:01;;;;;;;4.75;4.30;;;8.00;85.10;;;;;;5057875;28;20081;-68
2020/12/13 11:42:27;;;;;;;4.22;3.83;;;8.00;85.10;;;;;;5060591;28;20048;-68
2020/12/13 11:44:53;;;;;;;3.97;3.67;;;8.00;85.00;;;;;;5067799;28;20032;-68
2020/12/13 11:47:18;;;;;;;4.55;4.00;;;8.00;84.90;;;;;;5067724;28;20177;-68
2020/12/13 11:49:44;;;;;;;3.75;3.45;;;8.00;84.80;;;;;;5066817;28;20106;-68
2020/12/13 11:52:10;;;;;;;3.95;3.65;;;8.00;84.70;;;;;;5067709;28;20039;-68
2020/12/13 11:54:35;;;;;;;4.63;4.15;;;8.00;84.80;;;;;;5068658;28;20032;-68
2020/12/13 11:57:01;;;;;;;4.90;4.40;;;8.00;84.70;;;;;;5063291;28;20428;-68
2020/12/13 11:59:28;;;;;;;6.65;5.28;;;8.00;84.80;;;;;;5062121;28;20060;-68
2020/12/13 12:01:55;;;;;;;3.97;3.58;;;8.00;85.00;;;;;;5067689;28;20025;-68
2020/12/13 12:04:21;;;;;;;3.92;3.55;;;8.10;84.80;;;;;;5067596;28;20028;-68
2020/12/13 12:06:47;;;;;;;3.70;3.40;;;8.10;84.60;;;;;;5065969;28;20033;-68
2020/12/13 12:09:16;;;;;;;3.95;3.63;;;8.10;84.60;;;;;;5069403;28;20594;-68
2020/12/13 12:11:42;;;;;;;5.05;3.83;;;8.10;84.50;;;;;;5065643;28;20040;-68
2020/12/13 12:14:10;;;;;;;3.53;3.22;;;8.10;84.50;;;;;;5062118;28;20148;-68
2020/12/13 12:16:41;;;;;;;3.80;3.40;;;8.10;84.50;;;;;;5058047;28;20028;-68
2020/12/13 12:19:07;;;;;;;7.82;5.03;;;8.10;84.30;;;;;;5060588;28;20409;-68
2020/12/13 12:21:35;;;;;;;5.65;4.63;;;8.00;84.20;;;;;;5066168;28;20487;-68
2020/12/13 12:24:02;;;;;;;5.00;3.50;;;8.10;84.30;;;;;;5067074;28;20350;-68
2020/12/13 12:26:34;;;;;;;5.03;4.00;;;8.00;85.10;;;;;;5067569;28;20111;-68
2020/12/13 12:29:05;;;;;;;6.10;4.25;;;8.00;84.30;;;;;;5065712;28;20082;-66
2020/12/13 12:31:31;;;;;;;5.85;4.75;;;8.00;84.20;;;;;;5066459;28;20033;-68
2020/12/13 12:33:56;;;;;;;3.75;3.40;;;8.00;84.30;;;;;;5064833;28;20079;-69
2020/12/13 12:36:24;;;;;;;9.23;4.85;;;8.00;84.20;;;;;;5066922;28;20082;-68
2020/12/13 12:38:51;;;;;;;6.70;4.30;;;8.00;84.20;;;;;;5066488;28;20942;-68
2020/12/13 12:41:18;;;;;;;4.80;3.95;;;8.00;84.20;;;;;;5066409;28;20079;-69
2020/12/13 12:43:46;;;;;;;10.82;5.90;;;7.90;84.20;;;;;;5068452;28;20039;-68
2020/12/13 12:46:12;;;;;;;7.28;4.85;;;7.90;84.20;;;;;;5068018;28;20682;-68
2020/12/13 12:48:39;;;;;;;5.43;4.30;;;7.90;84.30;;;;;;5063831;28;20507;-68
2020/12/13 12:51:06;;;;;;;5.72;4.20;;;7.90;84.40;;;;;;5063095;28;20565;-68
2020/12/13 12:53:32;;;;;;;5.05;3.90;;;7.90;84.50;;;;;;5064394;28;20036;-68
2020/12/13 12:55:58;;;;;;;6.30;4.63;;;7.90;85.30;;;;;;5064703;28;20102;-68
2020/12/13 12:58:26;;;;;;;4.07;3.60;;;7.90;84.50;;;;;;5069936;28;20061;-68
2020/12/13 13:01:01;;;;;;;15.18;6.78;;;7.90;84.50;;;;;;5071025;28;20124;-67
2020/12/13 13:03:29;;;;;;;5.40;3.75;;;8.00;84.40;;;;;;5071349;28;20048;-68